createdAt,value
2022-10-15T00:09:10.526Z,14.56
2022-10-15T00:14:18.999Z,14.56
2022-10-15T00:19:28.122Z,14.44
2022-10-15T00:24:37.908Z,14.19
2022-10-15T00:29:47.641Z,14.44
2022-10-15T00:34:58.040Z,14.25
2022-10-15T00:40:07.165Z,14.38
2022-10-15T00:45:16.286Z,14.38
2022-10-15T00:50:31.045Z,14.5
2022-10-15T00:55:47.568Z,14.56
2022-10-15T01:01:04.263Z,14.56
2022-10-15T01:06:21.806Z,14.56
2022-10-15T01:11:37.967Z,14.5
2022-10-15T01:16:10.428Z,14.5
2022-10-15T01:21:20.124Z,14.56
2022-10-15T01:26:33.654Z,14.56
2022-10-15T01:31:42.846Z,14.62
2022-10-15T01:36:51.945Z,14.56
2022-10-15T01:42:00.438Z,14.62
2022-10-15T01:47:09.561Z,14.56
2022-10-15T01:52:18.154Z,14.44
2022-10-15T01:57:28.469Z,14.44
2022-10-15T02:02:38.199Z,14.44
2022-10-15T02:07:47.993Z,14.38
2022-10-15T02:12:59.001Z,14.31
2022-10-15T02:18:08.760Z,14.31
2022-10-15T02:23:18.520Z,14.31
2022-10-15T02:28:28.501Z,14.31
2022-10-15T02:33:37.401Z,14.38
2022-10-15T02:38:46.555Z,14.31
2022-10-15T02:43:55.001Z,14.31
2022-10-15T02:49:04.759Z,14.25
2022-10-15T02:54:12.625Z,14.38
2022-10-15T02:59:21.719Z,14.25
2022-10-15T03:04:31.477Z,14.31
2022-10-15T03:09:44.540Z,14.31
2022-10-15T03:14:49.721Z,14.38
2022-10-15T03:20:14.941Z,14.31
2022-10-15T03:25:31.741Z,14.25
2022-10-15T03:30:48.571Z,14.19
2022-10-15T03:36:04.703Z,14.25
2022-10-15T03:40:34.678Z,14.25
2022-10-15T03:45:43.165Z,14.31
2022-10-15T03:50:52.950Z,14.25
2022-10-15T03:56:00.152Z,14.12
2022-10-15T04:01:09.345Z,14.12
2022-10-15T04:06:17.722Z,14.06
2022-10-15T04:11:26.871Z,13.94
2022-10-15T04:16:35.960Z,13.88
2022-10-15T04:21:46.398Z,13.88
2022-10-15T04:26:56.127Z,13.88
2022-10-15T04:32:05.913Z,13.81
2022-10-15T04:37:14.364Z,13.69
2022-10-15T04:42:24.121Z,13.62
2022-10-15T04:47:32.641Z,13.69
2022-10-15T04:52:41.719Z,13.75
2022-10-15T04:57:52.151Z,13.81
2022-10-15T05:03:01.883Z,13.81
2022-10-15T05:08:11.674Z,13.81
2022-10-15T05:13:20.133Z,13.81
2022-10-15T05:18:29.881Z,13.81
2022-10-15T05:23:39.003Z,13.75
2022-10-15T05:28:48.196Z,13.69
2022-10-15T05:33:55.943Z,13.62
2022-10-15T05:39:05.110Z,13.69
2022-10-15T05:44:18.179Z,13.88
2022-10-15T05:49:35.569Z,13.69
2022-10-15T05:54:53.891Z,13.69
2022-10-15T06:00:11.886Z,13.69
2022-10-15T06:05:27.923Z,13.5
2022-10-15T06:10:44.836Z,13.5
2022-10-15T06:15:10.872Z,13.62
2022-10-15T06:20:19.962Z,13.5
2022-10-15T06:25:29.080Z,13.62
2022-10-15T06:30:38.200Z,13.81
2022-10-15T06:35:46.664Z,13.62
2022-10-15T06:40:57.112Z,13.62
2022-10-15T06:46:05.571Z,13.69
2022-10-15T06:51:14.680Z,13.69
2022-10-15T06:56:23.162Z,13.81
2022-10-15T07:01:32.918Z,13.75
2022-10-15T07:06:41.403Z,13.94
2022-10-15T07:11:51.163Z,14.12
2022-10-15T07:17:00.921Z,14.38
2022-10-15T07:22:09.508Z,14.38
2022-10-15T07:27:26.938Z,14.44
2022-10-15T07:32:43.537Z,14.38
2022-10-15T07:37:56.708Z,14.56
2022-10-15T07:43:12.894Z,14.56
2022-10-15T07:48:29.020Z,14.69
2022-10-15T07:53:09.241Z,14.94
2022-10-15T07:58:18.999Z,15
2022-10-15T08:03:28.759Z,15
2022-10-15T08:08:38.521Z,15
2022-10-15T08:13:47.042Z,15.06
2022-10-15T08:18:56.131Z,15.31
2022-10-15T08:24:07.193Z,15.44
2022-10-15T08:29:16.921Z,15.62
2022-10-15T08:34:26.041Z,16.06
2022-10-15T08:39:35.246Z,15.88
2022-10-15T08:44:46.857Z,16.06
2022-10-15T08:49:55.968Z,15.94
2022-10-15T08:55:10.203Z,16.06
2022-10-15T09:00:19.963Z,16.12
2022-10-15T09:05:27.804Z,16.06
2022-10-15T09:10:37.590Z,16.31
2022-10-15T09:15:47.322Z,16.19
2022-10-15T09:20:57.795Z,16.31
2022-10-15T09:26:15.600Z,16.44
2022-10-15T09:31:29.279Z,16.38
2022-10-15T09:36:45.001Z,16.31
2022-10-15T09:42:00.868Z,16.62
2022-10-15T09:47:16.053Z,16.62
2022-10-15T09:52:32.201Z,16.62
2022-10-15T09:57:49.650Z,17.06
2022-10-15T10:02:19.130Z,17.19
2022-10-15T10:07:28.122Z,17.12
2022-10-15T10:12:38.520Z,17.12
2022-10-15T10:17:47.730Z,17.19
2022-10-15T10:22:56.763Z,17.12
2022-10-15T10:28:05.242Z,17.31
2022-10-15T10:33:15.004Z,17.31
2022-10-15T10:38:47.172Z,17.31
2022-10-15T10:43:56.919Z,17.31
2022-10-15T10:49:07.408Z,17.19
2022-10-15T10:54:16.442Z,17.5
2022-10-15T10:59:46.689Z,17.56
2022-10-15T11:04:56.439Z,17.56
2022-10-15T11:10:07.419Z,17.62
2022-10-15T11:15:15.960Z,17.62
2022-10-15T11:20:58.572Z,17.56
2022-10-15T11:25:53.453Z,17.38
2022-10-15T11:38:14.126Z,17.62
2022-10-15T11:43:30.232Z,17.94
2022-10-15T11:48:00.760Z,17.62
2022-10-15T11:53:10.524Z,17.81
2022-10-15T11:58:20.951Z,18.12
2022-10-15T12:03:31.320Z,18.12
2022-10-15T12:09:06.009Z,18.19
2022-10-15T12:14:13.240Z,18.19
2022-10-15T12:19:21.723Z,18.31
2022-10-15T12:24:33.400Z,18.31
2022-10-15T12:29:42.557Z,18.31
2022-10-15T12:34:51.002Z,18.19
2022-10-15T12:40:02.684Z,18.12
2022-10-15T12:45:51.491Z,18.25
2022-10-15T12:51:05.721Z,18
2022-10-15T12:56:15.484Z,18.31
2022-10-15T13:01:25.348Z,18.25
2022-10-15T13:06:35.630Z,18.31
2022-10-15T13:11:45.519Z,18.38
2022-10-15T13:16:54.518Z,18.19
2022-10-15T13:22:04.282Z,18.38
2022-10-15T13:27:37.875Z,18.38
2022-10-15T13:32:48.119Z,18.38
2022-10-15T13:37:56.602Z,18.5
2022-10-15T13:43:05.086Z,18.69
2022-10-15T13:48:16.121Z,18.56
2022-10-15T13:53:31.641Z,18.69
2022-10-15T13:58:40.746Z,18.56
2022-10-15T14:03:51.800Z,18.69
2022-10-15T14:09:01.002Z,18.5
2022-10-15T14:14:10.684Z,18.56
2022-10-15T14:19:19.800Z,18.69
2022-10-15T14:24:29.563Z,18.62
2022-10-15T14:29:38.047Z,18.69
2022-10-15T14:34:50.360Z,18.5
2022-10-15T14:40:02.044Z,18.38
2022-10-15T14:45:11.161Z,18.19
2022-10-15T14:50:33.013Z,18.19
2022-10-15T14:55:43.478Z,18.44
2022-10-15T15:00:51.962Z,18.31
2022-10-15T15:06:02.390Z,18.5
2022-10-15T15:11:13.399Z,18.44
2022-10-15T15:16:26.361Z,18.25
2022-10-15T15:22:00.448Z,18
2022-10-15T15:27:09.557Z,18.06
2022-10-15T15:32:18.040Z,18.19
2022-10-15T15:37:27.160Z,18.25
2022-10-15T15:42:37.558Z,18.06
2022-10-15T15:47:46.078Z,17.81
2022-10-15T15:52:55.416Z,17.5
2022-10-15T15:58:03.626Z,17.5
2022-10-15T16:08:42.621Z,17.5
2022-10-15T16:13:58.142Z,17.31
2022-10-15T16:35:00.870Z,17.12
2022-10-15T16:40:16.414Z,17.12
2022-10-15T16:50:49.344Z,16.88
2022-10-15T16:56:04.221Z,16.88
2022-10-15T17:01:19.122Z,16.88
2022-10-15T17:06:35.245Z,16.81
2022-10-15T17:11:51.429Z,16.81
2022-10-15T17:17:06.943Z,16.69
2022-10-15T17:21:31.823Z,16.5
2022-10-15T17:25:59.800Z,16.38
2022-10-15T17:31:11.576Z,16.38
2022-10-15T17:36:26.460Z,16.31
2022-10-15T17:41:43.265Z,16.38
2022-10-15T17:52:13.018Z,16.25
2022-10-15T17:57:29.818Z,16.12
2022-10-15T18:02:49.919Z,16.25
2022-10-15T18:08:01.134Z,16.31
2022-10-15T18:12:30.201Z,16.25
2022-10-15T18:17:42.519Z,16.25
2022-10-15T18:22:52.281Z,16.25
2022-10-15T18:28:13.558Z,16.12
2022-10-15T18:33:20.762Z,16.12
2022-10-15T18:38:33.088Z,16.12
2022-10-15T18:43:46.042Z,16
2022-10-15T18:48:56.440Z,16.06
2022-10-15T18:54:06.210Z,15.94
2022-10-15T18:59:15.965Z,15.81
2022-10-15T19:04:25.720Z,15.56
2022-10-15T19:09:35.488Z,15.69
2022-10-15T19:14:47.805Z,15.62
2022-10-15T19:19:57.560Z,15.44
2022-10-15T19:25:07.963Z,15.5
2022-10-15T19:30:17.085Z,15.44
2022-10-15T19:35:27.481Z,15.56
2022-10-15T19:40:36.603Z,15.5
2022-10-15T19:45:46.362Z,15.38
2022-10-15T19:50:55.480Z,15.38
2022-10-15T19:56:06.525Z,15.38
2022-10-15T20:01:15.822Z,15.44
2022-10-15T20:06:24.791Z,15.31
2022-10-15T20:11:35.821Z,15.25
2022-10-15T20:16:49.434Z,15.12
2022-10-15T20:21:59.164Z,15.06
2022-10-15T20:27:09.559Z,15
2022-10-15T20:32:34.507Z,15.12
2022-10-15T20:37:29.083Z,15
2022-10-15T20:42:38.840Z,15
2022-10-15T20:47:49.240Z,14.94
2022-10-15T20:52:58.410Z,14.88
2022-10-15T20:58:08.212Z,14.75
2022-10-15T21:03:21.804Z,14.88
2022-10-15T21:08:38.766Z,14.69
2022-10-15T21:13:56.204Z,14.62
2022-10-15T21:19:12.365Z,14.62
2022-10-15T21:24:28.989Z,14.69
2022-10-15T21:29:46.586Z,14.56
2022-10-15T21:34:19.636Z,14.69
2022-10-15T21:39:30.038Z,14.69
2022-10-15T21:44:38.519Z,14.75
2022-10-15T21:49:48.919Z,14.75
2022-10-15T21:54:58.685Z,14.69
2022-10-15T22:00:10.999Z,14.62
2022-10-15T22:05:20.762Z,14.56
2022-10-15T22:10:29.880Z,14.56
2022-10-15T22:15:39.641Z,14.5
2022-10-15T22:20:50.088Z,14.5
2022-10-15T22:25:59.158Z,14.5
2022-10-15T22:31:08.918Z,14.44
2022-10-15T22:36:19.318Z,14.44
2022-10-15T22:41:33.016Z,14.38
2022-10-15T22:46:47.903Z,14.44
2022-10-15T22:52:04.710Z,14.38
2022-10-15T22:57:20.216Z,14.38
2022-10-15T23:02:35.166Z,14.31
2022-10-15T23:07:51.252Z,14.38
2022-10-15T23:13:07.421Z,14.25
2022-10-15T23:18:22.973Z,14.31
2022-10-15T23:22:47.799Z,14.31
2022-10-15T23:27:59.435Z,14.25
2022-10-15T23:33:06.041Z,14.25
2022-10-15T23:38:16.440Z,14.25
2022-10-15T23:43:25.562Z,14.25
2022-10-15T23:48:35.326Z,14.25
2022-10-15T23:53:45.095Z,14.19
2022-10-15T23:58:54.839Z,14.12
